Time;durP1;ratioP1;P1;durP2;ratioP2;P2;SDS_P1;SDS_P2;PMS_P1;PMS_P2;Temp;Humidity;BMP_temperature;BMP_pressure;BME280_temperature;BME280_humidity;BME280_pressure;Samples;Min_cycle;Max_cycle;Signal;HPM_P1;HPM_P2
2022/03/09 00:02:05;;;;;;;;;62.75;52.50;;;;;1.30;65.42;99770.38;4981936;28;8994;-81
2022/03/09 00:04:34;;;;;;;;;60.25;45.50;;;;;1.30;65.50;99773.81;4988577;28;8869;-81
2022/03/09 00:07:03;;;;;;;;;58.00;49.00;;;;;1.26;65.29;99777.09;4988614;28;8898;-81
2022/03/09 00:09:31;;;;;;;;;59.50;48.00;;;;;1.15;65.18;99773.19;4991962;28;8870;-82
2022/03/09 00:12:00;;;;;;;;;44.25;41.75;;;;;1.12;65.35;99778.22;4992459;28;8861;-83
2022/03/09 00:14:29;;;;;;;;;56.00;48.25;;;;;1.17;65.14;99771.56;5009354;28;8932;-83
2022/03/09 00:16:58;;;;;;;;;56.50;48.50;;;;;1.16;63.05;99768.13;4944829;28;8885;-81
2022/03/09 00:19:30;;;;;;;;;57.75;46.00;;;;;1.37;63.52;99767.25;5015362;28;8878;-81
2022/03/09 00:22:00;;;;;;;;;56.75;48.75;;;;;1.65;62.35;99760.63;5014581;28;8870;-80
2022/03/09 00:24:30;;;;;;;;;65.25;51.00;;;;;1.59;62.41;99768.97;4990031;28;8874;-81
2022/03/09 00:26:58;;;;;;;;;53.25;45.75;;;;;1.74;62.08;99759.28;4970376;28;8974;-81
2022/03/09 00:29:28;;;;;;;;;59.00;47.00;;;;;1.98;62.12;99757.56;4923184;28;8874;-82
2022/03/09 00:31:57;;;;;;;;;75.00;61.00;;;;;2.22;62.62;99755.03;4987233;28;8846;-80
2022/03/09 00:34:25;;;;;;;;;78.50;62.50;;;;;2.44;62.73;99756.66;4986947;28;8854;-83
2022/03/09 00:36:56;;;;;;;;;84.67;66.67;;;;;2.62;62.38;99753.88;4970068;28;8854;-82
2022/03/09 00:39:25;;;;;;;;;83.00;66.00;;;;;2.78;62.25;99752.69;4938608;28;9393;-83
2022/03/09 00:41:53;;;;;;;;;91.67;73.67;;;;;2.86;62.48;99758.97;4952052;28;9032;-83
2022/03/09 00:44:22;;;;;;;;;94.00;74.25;;;;;2.98;62.99;99758.50;4948179;28;9405;-82
2022/03/09 00:46:52;;;;;;;;;96.75;74.25;;;;;3.01;63.64;99761.19;4961621;28;9611;-83
2022/03/09 00:49:21;;;;;;;;;99.50;75.75;;;;;3.07;63.59;99751.94;4950066;28;9636;-81
2022/03/09 00:51:50;;;;;;;;;100.25;77.50;;;;;3.11;63.85;99753.81;4962265;28;10109;-83
2022/03/09 00:54:20;;;;;;;;;101.00;74.75;;;;;3.17;63.19;99747.97;4934243;28;9911;-81
2022/03/09 00:56:48;;;;;;;;;92.00;69.67;;;;;3.19;63.37;99753.19;4951303;28;9586;-81
2022/03/09 00:59:18;;;;;;;;;98.50;78.00;;;;;3.20;63.75;99753.22;5002232;28;10268;-81
2022/03/09 01:01:46;;;;;;;;;92.33;72.00;;;;;3.23;63.26;99753.34;4970209;28;9755;-81
2022/03/09 01:04:15;;;;;;;;;98.75;75.50;;;;;3.06;64.42;99762.19;4986245;28;9576;-80
2022/03/09 01:06:44;;;;;;;;;87.50;70.00;;;;;2.56;66.59;99771.69;4981465;28;10540;-81
2022/03/09 01:09:14;;;;;;;;;74.33;56.33;;;;;2.10;68.08;99769.19;4973313;28;9572;-82
2022/03/09 01:11:44;;;;;;;;;90.00;69.67;;;;;2.17;68.01;99764.28;4989765;28;9334;-80
2022/03/09 01:14:13;;;;;;;;;88.67;68.33;;;;;2.16;67.89;99765.09;4990552;28;9327;-85
2022/03/09 01:16:44;;;;;;;;;84.33;66.33;;;;;2.20;67.36;99762.69;4991090;28;9186;-84
2022/03/09 01:19:13;;;;;;;;;79.00;63.67;;;;;1.91;68.76;99766.75;5009562;28;9172;-83
2022/03/09 01:21:43;;;;;;;;;77.00;63.67;;;;;1.97;67.77;99767.00;4993685;28;9163;-84
2022/03/09 01:24:12;;;;;;;;;81.67;62.33;;;;;2.08;67.37;99765.69;5024830;28;8951;-84
2022/03/09 01:26:42;;;;;;;;;74.75;57.25;;;;;1.34;68.53;99769.69;5009898;28;9107;-82
2022/03/09 01:29:12;;;;;;;;;78.00;59.25;;;;;1.23;69.02;99768.38;5010051;28;8848;-83
2022/03/09 01:31:41;;;;;;;;;71.75;58.00;;;;;1.01;69.33;99771.78;4978292;28;8887;-83
2022/03/09 01:34:09;;;;;;;;;66.00;54.00;;;;;0.64;68.82;99767.66;4996495;28;8890;-81
2022/03/09 01:36:38;;;;;;;;;62.50;51.75;;;;;0.25;69.13;99770.28;5021904;28;8868;-85
2022/03/09 01:39:07;;;;;;;;;65.00;54.00;;;;;0.12;69.67;99769.72;5013898;28;8980;-83
2022/03/09 01:41:37;;;;;;;;;65.00;48.75;;;;;-0.01;70.85;99777.66;5012951;28;8851;-84
2022/03/09 01:44:11;;;;;;;;;63.25;48.50;;;;;-0.17;70.38;99773.53;4996574;28;8887;-81
2022/03/09 01:46:43;;;;;;;;;61.00;52.00;;;;;-0.27;70.46;99777.31;5029117;28;8894;-82
2022/03/09 01:49:12;;;;;;;;;57.25;48.75;;;;;-0.37;70.50;99782.84;4996099;28;8855;-81
2022/03/09 01:51:43;;;;;;;;;62.50;50.50;;;;;-0.35;70.35;99777.78;5012498;28;9062;-82
2022/03/09 01:54:13;;;;;;;;;46.50;45.25;;;;;-0.12;69.57;99782.28;4998732;28;8848;-79
2022/03/09 01:56:43;;;;;;;;;51.00;45.25;;;;;0.19;69.21;99776.00;5019939;28;8968;-82
2022/03/09 01:59:14;;;;;;;;;47.00;42.75;;;;;0.48;68.02;99772.13;4996932;28;8863;-81
2022/03/09 02:01:46;;;;;;;;;51.50;48.50;;;;;0.78;67.14;99766.56;4984338;28;8866;-83
2022/03/09 02:04:15;;;;;;;;;48.75;45.25;;;;;1.02;66.33;99766.72;4974988;28;8876;-84
2022/03/09 02:06:45;;;;;;;;;45.50;42.50;;;;;1.22;64.86;99764.06;4991210;28;8983;-83
2022/03/09 02:12:01;;;;;;;;;50.00;44.50;;;;;0.89;62.45;99761.84;4991485;28;8935;-84
2022/03/09 02:14:31;;;;;;;;;42.75;38.50;;;;;1.06;62.62;99763.44;4982298;28;8976;-82
2022/03/09 02:17:05;;;;;;;;;43.75;37.00;;;;;1.16;62.41;99762.13;4958267;28;8882;-85
2022/03/09 02:19:34;;;;;;;;;37.00;36.00;;;;;1.27;60.82;99771.16;4991977;28;8876;-84
2022/03/09 02:22:07;;;;;;;;;30.00;29.50;;;;;1.38;59.04;99768.13;4996272;28;8930;-83
2022/03/09 02:24:37;;;;;;;;;36.25;28.50;;;;;1.41;57.26;99761.41;4975967;28;8934;-84
2022/03/09 02:27:06;;;;;;;;;37.50;33.75;;;;;1.39;57.31;99775.88;4989801;28;8901;-83
2022/03/09 02:29:35;;;;;;;;;26.50;24.00;;;;;1.43;58.26;99774.31;5002754;28;8878;-85
2022/03/09 02:32:07;;;;;;;;;36.00;30.25;;;;;1.24;56.79;99763.31;4991761;28;8831;-84
2022/03/09 02:34:36;;;;;;;;;28.75;24.75;;;;;1.16;56.94;99765.56;4976432;28;8909;-83
2022/03/09 02:37:08;;;;;;;;;29.00;20.75;;;;;1.33;57.07;99767.94;4963202;28;8854;-81
2022/03/09 02:39:38;;;;;;;;;29.00;28.25;;;;;1.42;56.30;99763.19;4960041;28;8874;-81
2022/03/09 02:42:10;;;;;;;;;35.00;29.50;;;;;1.55;56.35;99767.09;4991705;28;8920;-81
2022/03/09 02:44:40;;;;;;;;;22.25;21.25;;;;;1.66;56.37;99763.22;5008022;28;8851;-83
2022/03/09 02:47:11;;;;;;;;;30.25;25.00;;;;;1.69;54.87;99765.94;4991307;28;8885;-80
2022/03/09 02:49:40;;;;;;;;;29.25;24.50;;;;;1.69;54.17;99772.78;4988370;28;8861;-79
2022/03/09 02:52:11;;;;;;;;;23.50;21.00;;;;;1.72;54.89;99771.19;4972476;28;8969;-79
2022/03/09 02:54:42;;;;;;;;;26.25;23.50;;;;;1.80;54.68;99776.63;4972287;28;8872;-80
2022/03/09 02:57:11;;;;;;;;;24.25;24.25;;;;;1.80;53.55;99775.78;4983896;28;8839;-80
2022/03/09 02:59:39;;;;;;;;;27.25;24.00;;;;;1.74;54.09;99774.72;4990978;28;8864;-80
2022/03/09 03:02:08;;;;;;;;;24.75;19.50;;;;;1.41;53.04;99779.41;4974435;28;8974;-81
2022/03/09 03:04:37;;;;;;;;;21.50;20.00;;;;;1.47;53.63;99782.19;4993816;28;8850;-81
2022/03/09 03:07:06;;;;;;;;;25.75;25.00;;;;;1.58;54.16;99777.50;5008931;28;8869;-80
2022/03/09 03:09:35;;;;;;;;;29.25;25.25;;;;;1.58;54.41;99780.06;5009422;28;8850;-80
2022/03/09 03:12:06;;;;;;;;;25.50;24.25;;;;;1.70;54.76;99785.69;5009232;28;9588;-82
2022/03/09 03:14:35;;;;;;;;;28.00;27.00;;;;;1.68;54.06;99774.47;5009194;28;8876;-80
2022/03/09 03:17:04;;;;;;;;;27.25;24.50;;;;;1.80;54.56;99781.78;4975525;28;8944;-80
2022/03/09 03:19:32;;;;;;;;;29.25;26.75;;;;;1.45;54.24;99785.53;4992439;28;8854;-80
2022/03/09 03:22:02;;;;;;;;;32.00;29.00;;;;;1.48;54.25;99783.97;4988143;28;8860;-81
2022/03/09 03:24:30;;;;;;;;;27.75;26.50;;;;;1.63;55.25;99782.84;4989400;28;8869;-81
2022/03/09 03:26:59;;;;;;;;;26.75;20.75;;;;;1.65;54.88;99789.78;4989108;28;8872;-83
2022/03/09 03:29:30;;;;;;;;;22.75;19.25;;;;;1.74;54.73;99784.13;5008490;28;8866;-83
2022/03/09 03:31:58;;;;;;;;;26.50;24.50;;;;;1.80;54.70;99786.91;4943849;28;8858;-82
2022/03/09 03:34:27;;;;;;;;;22.50;21.00;;;;;1.73;53.51;99790.06;4992544;28;8862;-84
2022/03/09 03:36:56;;;;;;;;;29.00;26.50;;;;;1.86;54.64;99794.00;5004199;28;8829;-82
2022/03/09 03:39:25;;;;;;;;;28.25;23.00;;;;;1.93;54.64;99788.28;4972771;28;8889;-82
2022/03/09 03:41:54;;;;;;;;;32.75;29.75;;;;;1.71;53.80;99795.16;5005203;28;8979;-82
2022/03/09 03:44:23;;;;;;;;;24.75;23.25;;;;;1.80;55.03;99799.78;4989965;28;8946;-81
2022/03/09 03:46:53;;;;;;;;;33.00;27.50;;;;;1.81;54.30;99796.38;5008355;28;8977;-84
2022/03/09 03:49:22;;;;;;;;;25.50;24.50;;;;;1.79;54.09;99808.28;5008160;28;8866;-82
2022/03/09 03:51:52;;;;;;;;;26.25;25.75;;;;;1.83;54.97;99805.00;4992210;28;8858;-83
2022/03/09 03:54:20;;;;;;;;;43.25;36.75;;;;;1.90;55.52;99799.28;4991307;28;8888;-81
2022/03/09 03:56:49;;;;;;;;;32.00;28.75;;;;;1.97;54.23;99804.66;4958687;28;8882;-81
2022/03/09 03:59:18;;;;;;;;;31.75;25.00;;;;;1.92;53.85;99807.06;4991481;28;8864;-80
2022/03/09 04:01:47;;;;;;;;;24.25;23.00;;;;;1.88;53.19;99800.94;4992035;28;8850;-82
2022/03/09 04:04:17;;;;;;;;;29.50;24.50;;;;;1.90;53.30;99795.84;4991838;28;8873;-82
2022/03/09 04:06:46;;;;;;;;;23.00;23.00;;;;;1.98;53.51;99797.00;4991728;28;8865;-81
2022/03/09 04:09:15;;;;;;;;;22.75;18.75;;;;;2.03;53.06;99795.50;4991872;28;9909;-80
2022/03/09 04:11:44;;;;;;;;;21.25;19.25;;;;;2.06;52.67;99799.88;4979714;28;9618;-81
2022/03/09 04:14:13;;;;;;;;;25.50;22.75;;;;;2.04;52.48;99801.50;5004947;28;8853;-82
2022/03/09 04:16:41;;;;;;;;;29.25;26.50;;;;;2.08;53.07;99809.41;5002722;28;8850;-81
2022/03/09 04:19:10;;;;;;;;;27.50;23.75;;;;;2.15;53.14;99807.94;4958527;28;8890;-80
2022/03/09 04:21:41;;;;;;;;;31.75;27.25;;;;;2.25;53.46;99810.06;4959816;28;9668;-83
2022/03/09 04:24:10;;;;;;;;;36.50;26.25;;;;;1.61;52.04;99811.03;4991292;28;8884;-82
2022/03/09 04:26:39;;;;;;;;;25.50;21.50;;;;;1.51;52.22;99814.94;4948272;28;8869;-80
2022/03/09 04:29:08;;;;;;;;;30.00;28.00;;;;;1.45;52.29;99816.38;4934870;28;8862;-81
2022/03/09 04:31:36;;;;;;;;;27.50;24.25;;;;;1.54;53.28;99815.03;4942398;28;8878;-82
2022/03/09 04:34:05;;;;;;;;;25.00;22.50;;;;;1.66;53.35;99813.78;4952014;28;8902;-82
2022/03/09 04:36:34;;;;;;;;;28.75;23.50;;;;;1.70;52.53;99811.41;4972830;28;9361;-83
2022/03/09 04:39:07;;;;;;;;;33.50;29.75;;;;;1.78;53.89;99811.69;4975595;28;8900;-82
2022/03/09 04:41:36;;;;;;;;;31.25;29.00;;;;;1.86;52.75;99799.13;4964818;28;9458;-82
2022/03/09 04:44:05;;;;;;;;;26.75;24.50;;;;;1.96;53.32;99808.94;4951418;28;8905;-82
2022/03/09 04:46:34;;;;;;;;;27.75;24.50;;;;;1.84;52.13;99808.50;4951455;28;8847;-81
2022/03/09 04:49:03;;;;;;;;;29.75;28.50;;;;;1.26;53.63;99801.91;4951491;28;8855;-82
2022/03/09 04:51:32;;;;;;;;;26.00;23.50;;;;;0.65;54.60;99801.09;4950853;28;8843;-81
2022/03/09 04:54:01;;;;;;;;;31.75;28.75;;;;;0.29;55.80;99802.94;4951371;28;8855;-80
2022/03/09 04:56:31;;;;;;;;;32.25;28.75;;;;;-0.05;57.56;99803.97;4969843;28;8848;-81
2022/03/09 04:59:00;;;;;;;;;36.00;30.50;;;;;-0.11;58.17;99802.00;4962329;28;8887;-82
2022/03/09 05:01:31;;;;;;;;;21.00;18.75;;;;;-0.11;57.02;99802.00;4935049;28;8871;-80
2022/03/09 05:03:59;;;;;;;;;32.00;29.50;;;;;-0.27;58.00;99812.34;4973993;28;8872;-82
2022/03/09 05:06:28;;;;;;;;;25.50;22.50;;;;;-0.48;59.30;99817.31;4970360;28;8841;-81
2022/03/09 05:08:57;;;;;;;;;28.75;24.75;;;;;-0.69;60.08;99819.72;4988543;28;8849;-81
2022/03/09 05:11:26;;;;;;;;;28.00;26.00;;;;;-0.63;60.44;99812.34;5007343;28;8870;-82
2022/03/09 05:13:56;;;;;;;;;33.50;27.25;;;;;-0.56;59.90;99809.28;4994905;28;8865;-81
2022/03/09 05:16:25;;;;;;;;;30.25;25.00;;;;;-0.15;59.23;99796.63;4994254;28;8911;-81
2022/03/09 05:18:54;;;;;;;;;31.50;25.50;;;;;0.18;58.43;99798.19;5011267;28;9584;-82
2022/03/09 05:21:23;;;;;;;;;24.00;21.75;;;;;0.46;58.18;99791.72;5004628;28;8861;-83
2022/03/09 05:23:52;;;;;;;;;28.75;26.75;;;;;0.73;57.94;99794.59;4941737;28;8872;-82
2022/03/09 05:26:21;;;;;;;;;39.50;39.00;;;;;0.64;55.84;99803.59;4980314;28;9585;-83
2022/03/09 05:28:50;;;;;;;;;33.75;30.25;;;;;0.49;56.19;99794.44;4993012;28;8886;-83
2022/03/09 05:31:25;;;;;;;;;35.50;33.75;;;;;0.55;56.31;99807.50;4992625;28;8842;-82
2022/03/09 05:33:53;;;;;;;;;30.25;26.75;;;;;0.54;56.34;99803.19;4991828;28;8850;-83
2022/03/09 05:36:22;;;;;;;;;34.25;34.25;;;;;0.37;57.22;99812.69;4976950;28;8869;-82
2022/03/09 05:38:51;;;;;;;;;45.75;39.75;;;;;0.27;58.71;99814.81;4996786;28;8866;-85
2022/03/09 05:41:21;;;;;;;;;53.25;41.75;;;;;-0.02;60.53;99820.38;4992813;28;8850;-83
2022/03/09 05:43:51;;;;;;;;;42.50;41.00;;;;;0.45;60.38;99820.72;4976171;28;8870;-82
2022/03/09 05:46:20;;;;;;;;;53.25;44.25;;;;;0.88;59.79;99827.72;4977452;28;8854;-83
2022/03/09 05:48:50;;;;;;;;;29.00;17.25;;;;;1.24;58.90;99822.38;4985927;28;9003;-81
2022/03/09 05:51:19;;;;;;;;;52.00;45.00;;;;;1.49;58.63;99826.84;4977288;28;8872;-81
2022/03/09 05:53:48;;;;;;;;;49.75;44.50;;;;;1.54;58.66;99819.31;4989789;28;8875;-83
2022/03/09 05:56:17;;;;;;;;;44.75;43.50;;;;;1.77;58.42;99837.34;4974469;28;8860;-84
2022/03/09 05:58:47;;;;;;;;;50.25;46.25;;;;;1.98;57.96;99834.72;4968058;28;9593;-83
2022/03/09 06:01:16;;;;;;;;;54.00;46.00;;;;;2.16;57.23;99832.00;4989234;28;9203;-82
2022/03/09 06:03:45;;;;;;;;;49.50;44.25;;;;;2.26;56.79;99829.78;4974770;28;9000;-82
2022/03/09 06:06:15;;;;;;;;;60.00;51.25;;;;;2.44;56.84;99829.63;4987776;28;8877;-82
2022/03/09 06:08:44;;;;;;;;;52.75;47.50;;;;;2.58;56.71;99832.69;4960718;28;8880;-83
2022/03/09 06:11:13;;;;;;;;;51.00;45.25;;;;;2.69;56.57;99830.50;4993321;28;8878;-83
2022/03/09 06:13:42;;;;;;;;;56.75;48.75;;;;;2.78;56.30;99833.41;4992242;28;8980;-81
2022/03/09 06:16:10;;;;;;;;;51.50;45.25;;;;;2.84;55.08;99837.91;4975784;28;8984;-83
2022/03/09 06:18:40;;;;;;;;;54.75;47.75;;;;;2.97;55.46;99834.91;4976523;28;9016;-83
2022/03/09 06:21:09;;;;;;;;;58.25;48.25;;;;;2.50;53.78;99849.56;4991826;28;9445;-81
2022/03/09 06:23:39;;;;;;;;;59.50;49.50;;;;;2.07;55.84;99846.22;4986258;28;8849;-82
2022/03/09 06:26:08;;;;;;;;;55.75;48.50;;;;;1.43;56.38;99861.69;4960960;28;8857;-82
2022/03/09 06:28:37;;;;;;;;;69.25;52.00;;;;;0.72;58.53;99874.97;4972148;28;8879;-75
2022/03/09 06:31:07;;;;;;;;;52.25;47.75;;;;;0.63;59.52;99866.88;4971881;28;8883;-72
2022/03/09 06:33:35;;;;;;;;;57.25;48.00;;;;;0.53;59.05;99860.47;4947104;28;9026;-75
2022/03/09 06:36:06;;;;;;;;;51.75;44.00;;;;;0.66;58.96;99866.13;4989531;28;8873;-74
2022/03/09 06:38:35;;;;;;;;;51.00;46.75;;;;;0.63;58.24;99868.56;4973473;28;8860;-72
2022/03/09 06:41:06;;;;;;;;;46.50;43.25;;;;;0.31;59.12;99862.88;4971262;28;8959;-75
2022/03/09 06:43:34;;;;;;;;;35.75;33.25;;;;;0.03;59.26;99870.97;4972053;28;8864;-76
2022/03/09 06:46:04;;;;;;;;;47.75;42.25;;;;;-0.02;60.63;99871.63;4988122;28;8837;-73
2022/03/09 06:48:34;;;;;;;;;47.50;45.00;;;;;0.04;59.90;99872.69;4924107;28;8877;-75
2022/03/09 06:51:02;;;;;;;;;48.75;42.75;;;;;0.15;59.49;99858.69;4955960;28;8950;-74
2022/03/09 06:53:31;;;;;;;;;40.00;37.00;;;;;0.32;59.46;99868.06;4955237;28;8949;-74
2022/03/09 06:56:00;;;;;;;;;41.25;37.50;;;;;0.36;59.15;99869.97;4986815;28;9038;-72
2022/03/09 06:58:30;;;;;;;;;44.50;41.00;;;;;0.31;57.47;99874.00;4954999;28;8908;-76
2022/03/09 07:00:59;;;;;;;;;41.50;38.75;;;;;0.44;58.07;99859.16;4987571;28;8880;-75
2022/03/09 07:03:29;;;;;;;;;39.75;37.00;;;;;0.73;57.71;99865.56;4990111;28;9079;-75
2022/03/09 07:05:58;;;;;;;;;46.25;40.50;;;;;0.85;57.15;99871.25;4974218;28;8846;-73
2022/03/09 07:08:27;;;;;;;;;36.75;36.75;;;;;0.58;57.16;99866.66;4987879;28;8951;-76
2022/03/09 07:10:58;;;;;;;;;43.00;40.00;;;;;0.77;57.44;99864.91;4974280;28;8858;-73
2022/03/09 07:13:27;;;;;;;;;36.25;33.25;;;;;0.78;56.37;99859.84;4989918;28;8936;-75
2022/03/09 07:15:57;;;;;;;;;42.75;42.50;;;;;0.64;56.38;99867.72;5003580;28;8858;-74
2022/03/09 07:18:26;;;;;;;;;49.00;44.50;;;;;0.68;57.54;99867.97;5008496;28;8901;-74
2022/03/09 07:20:55;;;;;;;;;42.50;38.75;;;;;0.82;56.65;99865.13;4988900;28;8951;-77
2022/03/09 07:23:23;;;;;;;;;50.75;41.00;;;;;0.87;57.36;99867.06;4989389;28;8887;-74
2022/03/09 07:25:52;;;;;;;;;46.75;42.50;;;;;0.96;57.85;99856.28;4958091;28;8936;-74
2022/03/09 07:28:20;;;;;;;;;48.75;44.00;;;;;1.16;56.69;99849.44;4991012;28;8901;-74
2022/03/09 07:30:49;;;;;;;;;46.00;41.50;;;;;1.45;55.43;99845.50;5007055;28;8831;-75
2022/03/09 07:33:19;;;;;;;;;31.75;31.00;;;;;1.61;54.24;99844.44;5006056;28;8927;-74
2022/03/09 07:35:48;;;;;;;;;37.25;33.50;;;;;1.74;53.32;99838.97;4989223;28;9678;-74
2022/03/09 07:38:16;;;;;;;;;46.25;41.25;;;;;2.14;53.09;99834.50;4989460;28;8865;-74
2022/03/09 07:40:45;;;;;;;;;45.75;43.00;;;;;2.57;52.84;99837.75;5003931;28;8864;-76
2022/03/09 07:43:14;;;;;;;;;61.75;48.75;;;;;2.39;52.75;99841.44;5005473;28;8850;-76
2022/03/09 07:45:47;;;;;;;;;54.00;46.75;;;;;2.02;54.62;99852.88;4969997;28;8958;-76
2022/03/09 07:48:16;;;;;;;;;53.75;46.50;;;;;1.86;55.15;99848.00;4982469;28;8960;-75
2022/03/09 07:50:46;;;;;;;;;51.25;43.75;;;;;1.69;55.30;99844.75;4973076;28;8885;-76
2022/03/09 07:53:14;;;;;;;;;56.00;45.25;;;;;1.71;56.11;99840.53;5004597;28;9143;-75
2022/03/09 07:55:44;;;;;;;;;50.25;43.25;;;;;1.68;56.17;99849.03;4968326;28;8903;-74
2022/03/09 07:58:13;;;;;;;;;44.75;42.00;;;;;1.76;56.36;99851.91;4985995;28;8870;-74
2022/03/09 08:00:41;;;;;;;;;38.50;35.50;;;;;1.83;54.76;99848.72;4953380;28;8882;-74
2022/03/09 08:03:10;;;;;;;;;37.75;36.50;;;;;1.98;54.79;99843.31;4969864;28;8909;-76
2022/03/09 08:05:59;;;;;;;;;41.00;38.25;;;;;2.46;55.35;99845.13;4969824;28;8854;-74
2022/03/09 08:08:29;;;;;;;;;36.50;29.75;;;;;2.80;53.65;99848.88;4969719;28;8870;-75
2022/03/09 08:10:58;;;;;;;;;38.00;31.75;;;;;2.85;52.82;99844.78;4969040;28;8889;-74
2022/03/09 08:13:26;;;;;;;;;33.50;29.50;;;;;3.26;52.14;99843.63;4988537;28;8844;-75
2022/03/09 08:15:57;;;;;;;;;28.00;24.00;;;;;3.47;51.28;99850.31;4987161;28;8887;-79
2022/03/09 08:18:25;;;;;;;;;30.75;28.25;;;;;3.56;49.94;99844.59;4987626;28;8983;-75
2022/03/09 08:20:54;;;;;;;;;34.00;32.25;;;;;3.39;48.98;99852.66;4967397;28;8873;-75
2022/03/09 08:23:24;;;;;;;;;44.75;37.50;;;;;2.90;49.53;99877.59;4931209;28;8856;-74
2022/03/09 08:25:53;;;;;;;;;33.25;30.75;;;;;2.68;50.45;99869.94;4978237;28;8885;-75
2022/03/09 08:28:21;;;;;;;;;29.75;29.75;;;;;2.95;51.57;99859.75;4950044;28;8875;-76
2022/03/09 08:30:52;;;;;;;;;30.75;27.25;;;;;3.28;51.44;99859.16;4984297;28;8895;-74
2022/03/09 08:33:20;;;;;;;;;41.50;34.25;;;;;2.87;51.79;99867.22;4985003;28;8868;-75
2022/03/09 08:35:49;;;;;;;;;37.00;35.00;;;;;3.17;52.08;99876.81;4950388;28;8914;-74
2022/03/09 08:38:18;;;;;;;;;36.75;32.00;;;;;2.32;52.04;99862.59;4966092;28;9589;-76
2022/03/09 08:40:48;;;;;;;;;38.50;34.75;;;;;2.43;52.85;99873.31;4975403;28;9092;-74
2022/03/09 08:43:18;;;;;;;;;42.25;38.50;;;;;2.02;53.98;99880.31;4989091;28;8882;-75
2022/03/09 08:45:47;;;;;;;;;44.50;37.00;;;;;2.26;54.81;99878.69;4954177;28;8859;-74
2022/03/09 08:48:19;;;;;;;;;42.75;38.00;;;;;2.68;53.96;99870.78;4987093;28;8856;-77
2022/03/09 08:50:48;;;;;;;;;43.50;36.75;;;;;2.10;53.61;99887.53;4969590;28;8883;-75
2022/03/09 08:53:16;;;;;;;;;48.75;43.25;;;;;1.86;55.24;99878.84;5017679;28;8849;-74
2022/03/09 08:55:45;;;;;;;;;41.50;37.75;;;;;2.28;54.84;99884.75;5031864;28;8911;-73
2022/03/09 08:58:16;;;;;;;;;41.25;39.00;;;;;2.34;55.47;99882.44;5008783;28;8874;-77
2022/03/09 09:00:45;;;;;;;;;41.75;35.50;;;;;2.31;54.98;99876.31;4960141;28;8924;-75
2022/03/09 09:03:13;;;;;;;;;38.50;36.00;;;;;2.40;54.21;99875.75;4986046;28;8872;-78
2022/03/09 09:05:42;;;;;;;;;44.75;42.00;;;;;2.42;54.30;99881.84;4960926;28;8880;-75
2022/03/09 09:08:11;;;;;;;;;32.00;27.25;;;;;1.99;55.66;99877.63;4989447;28;8935;-75
2022/03/09 09:10:39;;;;;;;;;48.75;39.25;;;;;1.71;56.40;99891.97;4991451;28;8878;-74
2022/03/09 09:13:10;;;;;;;;;46.75;41.00;;;;;1.60;57.92;99891.50;5003709;28;8880;-76
2022/03/09 09:15:41;;;;;;;;;39.00;36.25;;;;;1.41;57.49;99895.03;4981255;28;8873;-74
2022/03/09 09:18:10;;;;;;;;;42.50;40.50;;;;;1.60;57.65;99895.78;4990999;28;8884;-76
2022/03/09 09:20:48;;;;;;;;;43.00;37.25;;;;;1.72;57.89;99898.84;5002964;28;8890;-75
2022/03/09 09:23:18;;;;;;;;;43.00;39.00;;;;;1.53;58.60;99895.53;4990676;28;9713;-73
2022/03/09 09:25:46;;;;;;;;;45.00;36.25;;;;;1.62;58.22;99896.72;4962090;28;8887;-75
2022/03/09 09:28:16;;;;;;;;;36.50;35.00;;;;;1.90;57.93;99898.72;4962868;28;8891;-76
2022/03/09 09:30:49;;;;;;;;;42.00;35.75;;;;;2.18;56.90;99907.53;4970052;28;8861;-75
2022/03/09 09:33:18;;;;;;;;;37.25;36.50;;;;;1.80;57.66;99909.47;5006097;28;8892;-75
2022/03/09 09:35:49;;;;;;;;;49.25;41.25;;;;;1.85;58.06;99911.41;4971546;28;8854;-75
2022/03/09 09:38:18;;;;;;;;;42.25;40.50;;;;;2.18;57.32;99912.66;5009743;28;8870;-75
2022/03/09 09:40:51;;;;;;;;;39.00;37.75;;;;;2.15;56.71;99913.41;5009076;28;8858;-76
2022/03/09 09:43:20;;;;;;;;;41.25;39.75;;;;;1.97;56.30;99910.09;4992661;28;8967;-75
2022/03/09 09:45:53;;;;;;;;;33.75;30.75;;;;;1.94;56.34;99922.03;5009251;28;8862;-75
2022/03/09 09:48:21;;;;;;;;;38.25;33.50;;;;;2.08;56.13;99912.31;4961360;28;8874;-74
2022/03/09 09:50:54;;;;;;;;;34.75;33.25;;;;;2.11;55.26;99912.41;5011975;28;8940;-74
2022/03/09 09:53:24;;;;;;;;;30.25;28.00;;;;;2.26;54.09;99919.84;5010685;28;8938;-75
2022/03/09 09:55:53;;;;;;;;;27.50;26.75;;;;;2.41;54.17;99917.00;5004991;28;8943;-75
2022/03/09 09:58:22;;;;;;;;;30.75;27.75;;;;;2.25;54.08;99915.53;5000729;28;9046;-75
2022/03/09 10:00:52;;;;;;;;;34.25;30.50;;;;;2.25;55.21;99912.97;5009695;28;9647;-74
2022/03/09 10:03:21;;;;;;;;;41.75;36.50;;;;;2.48;54.82;99923.25;4976412;28;8981;-73
2022/03/09 10:05:50;;;;;;;;;33.25;28.25;;;;;2.80;53.66;99920.97;4992806;28;8887;-81
2022/03/09 10:08:19;;;;;;;;;38.25;31.75;;;;;2.87;52.24;99915.25;5009873;28;8854;-75
2022/03/09 10:10:56;;;;;;;;;33.75;31.50;;;;;2.57;52.43;99931.34;4969560;28;8897;-75
2022/03/09 10:13:27;;;;;;;;;26.75;25.50;;;;;2.85;52.09;99927.19;5008300;28;8956;-76
2022/03/09 10:16:20;;;;;;;;;28.50;23.75;;;;;2.54;52.26;99934.66;5008771;28;8862;-74
2022/03/09 10:18:53;;;;;;;;;25.25;21.75;;;;;2.47;52.39;99916.34;4993195;28;8874;-74
2022/03/09 10:21:25;;;;;;;;;31.25;27.75;;;;;2.79;52.19;99920.13;4993383;28;8862;-75
2022/03/09 10:24:01;;;;;;;;;37.50;32.25;;;;;3.01;51.60;99919.22;4990546;28;8852;-76
2022/03/09 10:26:44;;;;;;;;;28.25;25.00;;;;;2.53;52.99;99914.91;5008923;28;8905;-74
2022/03/09 10:29:15;;;;;;;;;32.00;29.50;;;;;2.08;54.22;99898.53;5008803;28;8858;-75
2022/03/09 10:31:47;;;;;;;;;28.00;22.25;;;;;2.16;53.84;99916.88;5010125;28;8874;-76
2022/03/09 10:34:24;;;;;;;;;24.75;24.75;;;;;2.22;54.76;99915.41;5009131;28;9075;-77
2022/03/09 10:36:57;;;;;;;;;28.75;27.75;;;;;2.07;55.18;99913.13;5009905;28;8886;-74
2022/03/09 10:39:31;;;;;;;;;27.00;25.00;;;;;2.18;55.53;99912.66;5008563;28;8858;-75
2022/03/09 10:42:00;;;;;;;;;27.50;26.50;;;;;2.36;55.26;99917.63;4992469;28;8878;-75
2022/03/09 10:44:42;;;;;;;;;29.50;23.75;;;;;2.16;56.46;99915.19;5008338;28;8872;-76
2022/03/09 10:47:28;;;;;;;;;23.00;21.50;;;;;1.94;55.61;99910.88;4992874;28;9725;-78
2022/03/09 10:50:08;;;;;;;;;30.00;22.50;;;;;1.99;56.08;99913.66;4992318;28;8849;-73
2022/03/09 10:52:48;;;;;;;;;29.50;26.25;;;;;1.92;55.97;99921.09;4992016;28;8885;-75
2022/03/09 10:55:22;;;;;;;;;29.25;24.75;;;;;1.98;57.03;99924.72;5024561;28;8886;-75
2022/03/09 10:57:50;;;;;;;;;23.00;21.00;;;;;2.02;56.71;99913.75;5002838;28;8858;-74
2022/03/09 11:00:41;;;;;;;;;20.50;20.50;;;;;1.89;57.22;99921.00;5008405;28;8882;-76
2022/03/09 11:03:16;;;;;;;;;29.00;25.50;;;;;2.24;57.39;99918.91;4959718;28;8913;-73
2022/03/09 11:05:54;;;;;;;;;23.25;21.75;;;;;2.46;56.34;99922.34;4991477;28;8858;-77
2022/03/09 11:08:24;;;;;;;;;25.25;23.75;;;;;2.46;56.43;99924.91;4991727;28;8855;-75
2022/03/09 11:10:55;;;;;;;;;29.50;23.75;;;;;2.27;57.64;99924.19;5007793;28;8847;-75
2022/03/09 11:13:24;;;;;;;;;28.25;28.25;;;;;2.46;56.46;99924.91;4991812;28;8866;-75
2022/03/09 11:15:54;;;;;;;;;17.00;17.00;;;;;2.45;57.77;99918.00;4991267;28;8847;-75
2022/03/09 11:18:26;;;;;;;;;30.00;24.50;;;;;2.73;56.06;99914.75;4991410;28;8909;-74
2022/03/09 11:20:56;;;;;;;;;30.25;28.75;;;;;2.28;56.82;99925.94;4991230;28;9818;-77
2022/03/09 11:23:26;;;;;;;;;37.25;26.00;;;;;1.81;58.98;99922.34;4991393;28;8874;-77
2022/03/09 11:26:02;;;;;;;;;26.00;24.50;;;;;1.63;59.24;99914.78;5009531;28;8866;-77
2022/03/09 11:28:32;;;;;;;;;27.75;22.75;;;;;1.52;60.01;99921.16;5004879;28;8866;-76
2022/03/09 11:31:04;;;;;;;;;26.00;20.75;;;;;1.49;60.15;99929.63;5001324;28;8865;-75
2022/03/09 11:33:41;;;;;;;;;27.00;21.75;;;;;1.61;59.83;99924.13;4987673;28;8868;-74
2022/03/09 11:36:35;;;;;;;;;25.50;15.75;;;;;1.89;59.39;99925.22;5006344;28;8885;-75
2022/03/09 11:39:24;;;;;;;;;30.75;27.25;;;;;1.79;60.19;99903.41;5007678;28;8854;-74
2022/03/09 11:42:31;;;;;;;;;35.00;29.00;;;;;1.98;59.87;99915.31;4991414;28;8854;-74
2022/03/09 11:45:30;;;;;;;;;25.75;21.50;;;;;2.10;59.65;99909.81;5008488;28;8865;-77
2022/03/09 11:48:03;;;;;;;;;24.75;19.00;;;;;2.20;58.96;99911.91;5007513;28;8838;-75
2022/03/09 11:50:36;;;;;;;;;31.25;22.00;;;;;2.39;58.42;99912.63;4994121;28;8975;-75